createdAt,value
2023-05-08T00:02:05.105Z,10.40
2023-05-08T00:07:07.887Z,10.00
2023-05-08T00:12:10.656Z,10.20
2023-05-08T00:17:14.954Z,12.80
2023-05-08T00:22:17.739Z,12.20
2023-05-08T00:27:20.703Z,13.00
2023-05-08T00:32:24.982Z,10.00
2023-05-08T00:37:28.575Z,13.00
2023-05-08T00:42:31.368Z,11.60
2023-05-08T00:47:35.519Z,8.20
2023-05-08T00:52:38.316Z,9.60
2023-05-08T00:57:41.217Z,11.20
2023-05-08T01:02:45.511Z,12.00
2023-05-08T01:07:48.540Z,10.80
2023-05-08T01:12:57.656Z,10.60
2023-05-08T01:18:05.949Z,12.00
2023-05-08T01:23:41.912Z,8.20
2023-05-08T01:29:07.853Z,8.80
2023-05-08T01:34:15.393Z,10.80
2023-05-08T01:39:19.915Z,9.60
2023-05-08T01:44:23.068Z,10.00
2023-05-08T01:49:28.562Z,9.60
2023-05-08T01:54:37.367Z,9.20
2023-05-08T01:59:42.988Z,11.00
2023-05-08T02:04:48.017Z,9.80
2023-05-08T02:09:50.820Z,9.00
2023-05-08T02:14:54.177Z,8.40
2023-05-08T02:19:58.756Z,9.20
2023-05-08T02:25:01.541Z,9.60
2023-05-08T02:30:04.837Z,11.00
2023-05-08T02:35:10.021Z,11.00
2023-05-08T02:40:14.027Z,8.80
2023-05-08T02:45:17.028Z,9.80
2023-05-08T02:50:24.725Z,7.20
2023-05-08T02:55:34.196Z,8.80
2023-05-08T03:00:44.747Z,8.40
2023-05-08T03:05:52.674Z,8.00
2023-05-08T03:10:56.625Z,8.00
2023-05-08T03:16:01.269Z,9.40
2023-05-08T03:21:05.791Z,9.40
2023-05-08T03:26:08.626Z,9.00
2023-05-08T03:31:12.583Z,9.80
2023-05-08T03:36:17.050Z,9.20
2023-05-08T03:41:19.912Z,8.80
2023-05-08T03:46:23.539Z,10.20
2023-05-08T03:51:28.842Z,10.80
2023-05-08T03:56:31.964Z,8.00
2023-05-08T04:01:40.468Z,9.00
2023-05-08T04:06:51.893Z,10.80
2023-05-08T04:12:06.174Z,7.00
2023-05-08T04:17:11.769Z,7.80
2023-05-08T04:22:16.028Z,8.00
2023-05-08T04:27:18.881Z,8.00
2023-05-08T04:32:21.936Z,8.00
2023-05-08T04:37:27.075Z,12.20
2023-05-08T04:42:31.527Z,9.00
2023-05-08T04:47:36.535Z,8.40
2023-05-08T04:52:41.408Z,9.00
2023-05-08T04:57:44.519Z,6.80
2023-05-08T05:02:47.901Z,7.00
2023-05-08T05:07:52.138Z,8.00
2023-05-08T05:12:56.420Z,9.40
2023-05-08T05:17:59.496Z,6.20
2023-05-08T05:23:03.909Z,8.20
2023-05-08T05:28:07.332Z,8.00
2023-05-08T05:33:10.259Z,8.20
2023-05-08T05:38:14.698Z,8.00
2023-05-08T05:43:17.732Z,10.20
2023-05-08T05:48:21.439Z,7.20
2023-05-08T05:53:26.033Z,7.40
2023-05-08T05:58:29.443Z,8.00
2023-05-08T06:03:32.888Z,11.00
2023-05-08T06:08:37.145Z,6.00
2023-05-08T06:13:40.854Z,7.20
2023-05-08T06:18:44.092Z,8.00
2023-05-08T06:23:48.354Z,8.40
2023-05-08T06:28:51.159Z,8.60
2023-05-08T06:33:53.964Z,9.00
2023-05-08T06:38:58.161Z,9.80
2023-05-08T06:44:01.008Z,9.00
2023-05-08T06:49:03.895Z,11.60
2023-05-08T06:54:08.645Z,8.80
2023-05-08T06:59:11.596Z,10.00
2023-05-08T07:04:14.515Z,9.00
2023-05-08T07:09:18.708Z,9.20
2023-05-08T07:14:21.501Z,9.80
2023-05-08T07:19:24.898Z,8.20
2023-05-08T07:24:29.077Z,8.40
2023-05-08T07:29:31.896Z,9.00
2023-05-08T07:34:34.926Z,7.60
2023-05-08T07:39:39.197Z,9.40
2023-05-08T07:44:53.869Z,7.60
2023-05-08T07:49:57.849Z,10.00
2023-05-08T07:55:01.965Z,8.00
2023-05-08T08:00:05.640Z,8.60
2023-05-08T08:05:16.354Z,8.60
2023-05-08T08:10:20.789Z,8.60
2023-05-08T08:15:23.679Z,9.00
2023-05-08T08:20:26.531Z,17.00
2023-05-08T08:25:30.859Z,22.40
2023-05-08T08:30:33.701Z,20.40
2023-05-08T08:35:36.741Z,19.80
2023-05-08T08:40:44.041Z,21.20
2023-05-08T08:45:47.219Z,19.60
2023-05-08T08:50:50.006Z,19.40
2023-05-08T08:55:55.628Z,18.40
2023-05-08T09:00:58.511Z,18.60
2023-05-08T09:06:01.928Z,19.40
2023-05-08T09:11:06.580Z,22.60
2023-05-08T09:16:09.437Z,19.00
2023-05-08T09:21:12.541Z,20.20
2023-05-08T09:26:27.951Z,17.60
2023-05-08T09:31:35.845Z,16.00
2023-05-08T09:36:40.246Z,16.60
2023-05-08T09:41:57.666Z,18.00
2023-05-08T09:47:12.768Z,17.60
2023-05-08T09:52:16.754Z,17.40
2023-05-08T09:57:21.597Z,16.80
2023-05-08T10:02:24.584Z,14.00
2023-05-08T10:07:31.523Z,12.00
2023-05-08T10:12:38.077Z,14.80
2023-05-08T10:17:43.662Z,14.00
2023-05-08T10:22:46.724Z,16.60
2023-05-08T10:27:54.927Z,12.40
2023-05-08T10:32:58.902Z,12.60
2023-05-08T10:38:01.702Z,9.20
2023-05-08T10:43:07.585Z,11.80
2023-05-08T10:48:14.713Z,10.20
2023-05-08T10:53:20.625Z,11.80
2023-05-08T10:58:35.036Z,11.00
2023-05-08T11:03:40.190Z,7.60
2023-05-08T11:08:54.404Z,8.60
2023-05-08T11:14:00.781Z,7.80
2023-05-08T11:19:19.517Z,8.40
2023-05-08T11:24:22.323Z,11.40
2023-05-08T11:29:26.637Z,8.40
2023-05-08T11:34:48.816Z,7.40
2023-05-08T11:39:51.770Z,5.40
2023-05-08T11:45:03.432Z,8.20
2023-05-08T11:50:07.309Z,7.40
2023-05-08T11:55:11.223Z,6.00
2023-05-08T12:00:16.959Z,6.80
2023-05-08T12:05:27.544Z,6.80
2023-05-08T12:10:30.479Z,8.00
2023-05-08T12:15:34.698Z,5.00
2023-05-08T12:20:37.596Z,7.60
2023-05-08T12:25:40.676Z,6.00
2023-05-08T12:30:44.968Z,5.00
2023-05-08T12:35:47.830Z,8.00
2023-05-08T12:40:52.978Z,6.00
2023-05-08T12:45:57.236Z,5.80
2023-05-08T12:51:04.274Z,5.00
2023-05-08T12:56:08.150Z,5.00
2023-05-08T13:01:13.501Z,5.00
2023-05-08T13:06:22.675Z,107.00
2023-05-08T13:11:32.974Z,271.00
2023-05-08T13:16:44.712Z,185.25
2023-05-08T13:21:47.866Z,192.50
2023-05-08T13:26:50.626Z,297.00
2023-05-08T13:31:55.028Z,332.50
2023-05-08T13:36:57.848Z,293.00
2023-05-08T13:42:00.684Z,285.00
2023-05-08T13:47:05.010Z,221.33
2023-05-08T13:52:07.873Z,204.50
2023-05-08T13:57:10.735Z,189.75
2023-05-08T14:02:15.433Z,192.25
2023-05-08T14:07:18.489Z,178.50
2023-05-08T14:12:21.264Z,173.75
2023-05-08T14:17:25.616Z,165.50
2023-05-08T14:22:28.770Z,162.25
2023-05-08T14:27:31.605Z,148.50
2023-05-08T14:32:35.853Z,158.75
2023-05-08T14:37:38.691Z,155.50
2023-05-08T14:42:41.612Z,150.25
2023-05-08T14:47:46.327Z,150.75
2023-05-08T14:52:49.487Z,144.75
2023-05-08T14:57:52.406Z,142.25
2023-05-08T15:02:57.081Z,134.50
2023-05-08T15:08:01.476Z,135.75
2023-05-08T15:13:04.371Z,139.50
2023-05-08T15:18:08.639Z,135.25
2023-05-08T15:23:11.532Z,134.00
2023-05-08T15:28:14.428Z,133.25
2023-05-08T15:33:18.741Z,125.00
2023-05-08T15:38:21.469Z,123.00
2023-05-08T15:43:24.240Z,118.50
2023-05-08T15:48:28.431Z,116.75
2023-05-08T15:53:31.360Z,109.50
2023-05-08T15:58:36.552Z,115.00
2023-05-08T16:03:40.745Z,105.00
2023-05-08T16:08:43.989Z,117.00
2023-05-08T16:13:46.794Z,110.50
2023-05-08T16:18:50.947Z,102.25
2023-05-08T16:23:53.988Z,103.50
2023-05-08T16:28:56.828Z,95.25
2023-05-08T16:34:00.940Z,90.75
2023-05-08T16:39:04.025Z,90.00
2023-05-08T16:44:06.832Z,81.25
2023-05-08T16:49:11.038Z,74.75
2023-05-08T16:54:14.042Z,73.67
2023-05-08T16:59:16.986Z,68.00
2023-05-08T17:04:21.736Z,63.67
2023-05-08T17:09:25.314Z,59.67
2023-05-08T17:14:28.616Z,57.00
2023-05-08T17:19:32.956Z,50.00
2023-05-08T17:24:37.302Z,48.25
2023-05-08T17:29:40.424Z,38.25
2023-05-08T17:34:44.725Z,37.50
2023-05-08T17:39:47.592Z,32.25
2023-05-08T17:44:50.547Z,38.00
2023-05-08T17:49:54.680Z,34.00
2023-05-08T17:54:58.007Z,34.25
2023-05-08T18:00:00.828Z,34.00
2023-05-08T18:05:05.668Z,28.80
2023-05-08T18:10:09.693Z,33.75
2023-05-08T18:15:13.397Z,27.40
2023-05-08T18:20:17.644Z,26.00
2023-05-08T18:25:20.784Z,29.00
2023-05-08T18:30:23.912Z,29.80
2023-05-08T18:35:28.161Z,25.40
2023-05-08T18:40:31.299Z,28.20
2023-05-08T18:45:34.114Z,21.00
2023-05-08T18:50:38.492Z,21.80
2023-05-08T18:55:41.680Z,24.40
2023-05-08T19:00:45.261Z,21.80
2023-05-08T19:05:51.186Z,22.00
2023-05-08T19:10:54.049Z,22.40
2023-05-08T19:15:56.849Z,21.00
2023-05-08T19:21:02.317Z,19.00
2023-05-08T19:26:05.301Z,22.60
2023-05-08T19:31:08.347Z,21.40
2023-05-08T19:36:12.695Z,24.00
2023-05-08T19:41:17.187Z,22.00
2023-05-08T19:46:20.457Z,20.00
2023-05-08T19:51:25.131Z,20.00
2023-05-08T19:56:27.955Z,21.60
2023-05-08T20:01:30.972Z,20.60
2023-05-08T20:06:35.256Z,19.60
2023-05-08T20:11:38.123Z,20.80
2023-05-08T20:16:41.774Z,16.60
2023-05-08T20:21:46.850Z,16.60
2023-05-08T20:26:51.784Z,17.00
2023-05-08T20:31:54.918Z,20.00
2023-05-08T20:37:00.866Z,20.80
2023-05-08T20:42:03.686Z,16.60
2023-05-08T20:47:06.590Z,18.20
2023-05-08T20:52:10.773Z,17.40
2023-05-08T20:57:15.716Z,17.00
2023-05-08T21:02:18.609Z,12.40
2023-05-08T21:07:22.762Z,16.80
2023-05-08T21:12:25.743Z,17.80
2023-05-08T21:17:28.633Z,15.00
2023-05-08T21:22:34.051Z,17.20
2023-05-08T21:27:49.890Z,17.00
2023-05-08T21:32:52.835Z,15.40
2023-05-08T21:37:57.069Z,19.00
2023-05-08T21:43:00.050Z,17.00
2023-05-08T21:48:03.111Z,17.60
2023-05-08T21:53:07.428Z,14.40
2023-05-08T21:58:10.231Z,16.00
2023-05-08T22:03:13.148Z,14.20
2023-05-08T22:08:17.377Z,15.80
2023-05-08T22:13:20.358Z,14.20
2023-05-08T22:18:23.292Z,16.80
2023-05-08T22:23:27.400Z,14.60
2023-05-08T22:28:30.179Z,13.80
2023-05-08T22:33:33.933Z,11.00
2023-05-08T22:38:38.136Z,11.60
2023-05-08T22:43:40.871Z,11.60
2023-05-08T22:48:43.618Z,12.60
2023-05-08T22:53:48.243Z,10.20
2023-05-08T22:58:51.137Z,13.60
2023-05-08T23:03:54.389Z,11.00
2023-05-08T23:08:58.501Z,11.00
2023-05-08T23:14:01.292Z,12.00
2023-05-08T23:19:04.514Z,12.80
2023-05-08T23:24:09.178Z,13.20
2023-05-08T23:29:12.008Z,11.00
2023-05-08T23:34:14.804Z,11.40
2023-05-08T23:39:19.107Z,12.20
2023-05-08T23:44:21.919Z,12.60
2023-05-08T23:49:25.003Z,9.40
2023-05-08T23:54:29.074Z,13.40
2023-05-08T23:59:31.922Z,11.80
